Time;durP1;ratioP1;P1;durP2;ratioP2;P2;SDS_P1;SDS_P2;PMS_P1;PMS_P2;Temp;Humidity;BMP_temperature;BMP_pressure;BME280_temperature;BME280_humidity;BME280_pressure;Samples;Min_cycle;Max_cycle;Signal;HPM_P1;HPM_P2
2023/10/15 00:01:32;;;;;;;9.30;2.13;;;8.60;81.20;;;;;;5024166;28;20533;-83
2023/10/15 00:03:58;;;;;;;11.55;2.88;;;8.60;82.00;;;;;;5002406;28;20072;-83
2023/10/15 00:06:24;;;;;;;11.80;2.42;;;8.60;81.80;;;;;;5023161;28;20037;-83
2023/10/15 00:08:50;;;;;;;7.93;1.50;;;8.50;83.30;;;;;;5022979;28;20441;-83
2023/10/15 00:11:21;;;;;;;8.68;1.65;;;8.50;82.80;;;;;;5017742;28;20038;-84
2023/10/15 00:13:47;;;;;;;8.30;1.92;;;8.50;83.30;;;;;;5018102;28;20087;-83
2023/10/15 00:16:20;;;;;;;8.20;1.75;;;8.40;84.30;;;;;;5016357;28;20541;-83
2023/10/15 00:18:47;;;;;;;6.97;1.50;;;8.40;83.90;;;;;;5034070;28;20052;-84
2023/10/15 00:21:12;;;;;;;6.68;1.63;;;8.40;84.00;;;;;;5033842;28;20120;-83
2023/10/15 00:23:44;;;;;;;7.03;1.70;;;8.50;83.90;;;;;;5017501;28;20135;-82
2023/10/15 00:26:14;;;;;;;7.63;1.90;;;8.50;83.70;;;;;;5001357;28;20033;-83
2023/10/15 00:28:41;;;;;;;4.57;1.40;;;8.50;84.20;;;;;;5017353;28;20042;-83
2023/10/15 00:31:13;;;;;;;11.75;1.50;;;8.50;83.70;;;;;;5001219;28;20191;-83
2023/10/15 00:37:15;;;;;;;5.80;1.77;;;8.70;83.00;;;;;;5019243;28;20127;-82
2023/10/15 00:40:06;;;;;;;8.20;1.80;;;8.90;82.80;;;;;;5033792;28;20108;-83
2023/10/15 00:45:06;;;;;;;5.95;1.73;;;9.00;82.20;;;;;;5032411;28;20061;-83
2023/10/15 00:47:34;;;;;;;6.40;1.27;;;9.10;81.50;;;;;;5014593;28;20041;-84
2023/10/15 00:50:07;;;;;;;8.25;1.60;;;9.20;81.00;;;;;;5000635;28;20041;-84
2023/10/15 00:52:37;;;;;;;7.57;1.67;;;9.20;80.70;;;;;;5000375;28;20048;-81
2023/10/15 00:55:05;;;;;;;5.72;1.48;;;9.20;80.20;;;;;;4965380;28;20045;-83
2023/10/15 00:57:43;;;;;;;5.03;1.98;;;9.20;79.70;;;;;;4980995;28;20490;-83
2023/10/15 01:02:57;;;;;;;8.13;1.52;;;9.20;79.50;;;;;;4997009;28;20141;-83
2023/10/15 01:05:26;;;;;;;4.80;1.20;;;9.10;79.50;;;;;;4964051;28;20132;-82
2023/10/15 01:07:54;;;;;;;7.45;1.50;;;9.10;79.70;;;;;;4980807;28;20044;-83
2023/10/15 01:10:43;;;;;;;7.75;1.52;;;9.10;79.40;;;;;;4965718;28;20137;-83
2023/10/15 01:13:21;;;;;;;6.00;0.98;;;9.10;79.60;;;;;;4983125;28;20121;-81
2023/10/15 01:15:54;;;;;;;5.45;1.17;;;9.10;79.50;;;;;;4980513;28;20125;-83
2023/10/15 01:18:20;;;;;;;11.43;1.73;;;9.10;79.20;;;;;;4996569;28;20046;-83
2023/10/15 01:20:45;;;;;;;4.72;1.13;;;9.10;79.10;;;;;;4963073;28;20105;-82
2023/10/15 01:23:28;;;;;;;7.93;1.80;;;9.10;79.30;;;;;;4982321;28;20156;-82
2023/10/15 01:25:59;;;;;;;6.60;1.35;;;9.10;79.70;;;;;;4968382;28;20038;-83
2023/10/15 01:28:36;;;;;;;5.47;1.17;;;9.20;79.80;;;;;;4998328;28;20046;-83
2023/10/15 01:31:04;;;;;;;8.50;1.10;;;9.20;80.10;;;;;;4980466;28;20487;-83
2023/10/15 01:33:30;;;;;;;7.88;1.30;;;9.10;80.50;;;;;;4980286;28;20041;-82
2023/10/15 01:36:06;;;;;;;6.05;1.33;;;9.10;80.50;;;;;;4964438;28;20445;-83
2023/10/15 01:38:33;;;;;;;6.15;1.00;;;9.00;80.50;;;;;;4983936;28;20042;-83
2023/10/15 01:41:03;;;;;;;3.65;1.35;;;9.00;80.30;;;;;;4984718;28;20041;-83
2023/10/15 01:43:32;;;;;;;4.32;1.00;;;9.00;79.90;;;;;;4979824;28;20050;-83
2023/10/15 01:46:00;;;;;;;1.95;0.63;;;9.00;79.00;;;;;;4964185;28;20042;-83
2023/10/15 01:48:30;;;;;;;6.95;1.65;;;9.10;77.00;;;;;;4964383;28;20057;-84
2023/10/15 01:51:06;;;;;;;4.88;1.17;;;9.10;79.40;;;;;;4964810;28;20049;-85
2023/10/15 01:53:34;;;;;;;4.80;1.13;;;9.00;80.60;;;;;;4980053;28;20041;-87
2023/10/15 01:56:04;;;;;;;3.03;0.88;;;8.70;80.90;;;;;;4980310;28;20053;-85
2023/10/15 01:58:33;;;;;;;4.88;0.95;;;8.60;80.50;;;;;;4995964;28;20042;-85
2023/10/15 02:01:13;;;;;;;5.90;1.00;;;8.50;80.40;;;;;;4988393;28;20077;-85
2023/10/15 02:03:41;;;;;;;3.58;0.75;;;8.40;80.90;;;;;;4993047;28;20038;-85
2023/10/15 02:06:07;;;;;;;4.28;0.98;;;8.40;81.50;;;;;;4960954;28;20034;-84
2023/10/15 02:08:39;;;;;;;4.28;0.98;;;8.30;81.70;;;;;;4980328;28;20050;-84
2023/10/15 02:11:15;;;;;;;2.58;0.82;;;8.30;81.80;;;;;;4977229;28;20050;-86
2023/10/15 02:13:44;;;;;;;3.72;1.63;;;8.20;81.90;;;;;;4992899;28;20052;-83
2023/10/15 02:16:29;;;;;;;2.67;0.80;;;8.30;81.80;;;;;;4977047;28;20039;-82
2023/10/15 02:18:58;;;;;;;1.33;0.63;;;8.30;82.00;;;;;;4979247;28;20490;-82
2023/10/15 02:21:25;;;;;;;4.15;0.70;;;8.20;82.30;;;;;;4992426;28;20038;-84
2023/10/15 02:23:51;;;;;;;6.50;1.48;;;8.10;82.30;;;;;;4960485;28;20038;-84
2023/10/15 02:26:30;;;;;;;3.15;1.00;;;8.10;82.40;;;;;;4994506;28;20034;-83
2023/10/15 02:29:05;;;;;;;3.95;0.73;;;8.10;82.30;;;;;;4979786;28;20038;-83
2023/10/15 02:31:31;;;;;;;2.45;0.98;;;8.10;82.40;;;;;;4981559;28;20026;-81
2023/10/15 02:33:57;;;;;;;3.60;0.52;;;8.00;82.70;;;;;;4963995;28;20056;-84
2023/10/15 02:36:26;;;;;;;2.85;0.77;;;8.00;82.70;;;;;;4963864;28;20394;-82
2023/10/15 02:38:56;;;;;;;2.58;0.60;;;8.00;82.80;;;;;;4964255;28;20053;-82
2023/10/15 02:41:26;;;;;;;4.10;1.05;;;8.00;82.80;;;;;;4979789;28;20387;-83
2023/10/15 02:43:54;;;;;;;3.85;1.42;;;7.90;82.80;;;;;;4963885;28;20061;-82
2023/10/15 02:46:36;;;;;;;4.95;0.70;;;7.80;83.00;;;;;;4963999;28;20433;-82
2023/10/15 02:49:06;;;;;;;2.90;0.68;;;7.80;83.10;;;;;;4964721;28;20038;-82
2023/10/15 02:51:35;;;;;;;5.55;0.70;;;7.70;83.20;;;;;;4963994;28;20042;-83
2023/10/15 02:54:18;;;;;;;3.20;0.65;;;7.70;83.30;;;;;;4979954;28;20042;-83
2023/10/15 02:56:47;;;;;;;4.63;0.70;;;7.60;83.40;;;;;;4997262;28;20329;-82
2023/10/15 02:59:16;;;;;;;2.38;0.60;;;7.60;83.60;;;;;;4967296;28;20038;-83
2023/10/15 03:01:45;;;;;;;7.70;1.17;;;7.60;83.70;;;;;;4967593;28;20038;-80
2023/10/15 03:04:11;;;;;;;3.05;0.70;;;7.70;83.70;;;;;;4983612;28;20046;-82
2023/10/15 03:06:41;;;;;;;2.35;0.75;;;7.70;83.70;;;;;;4982892;28;20038;-83
2023/10/15 03:09:11;;;;;;;4.35;1.10;;;7.60;83.80;;;;;;4983429;28;20482;-82
2023/10/15 03:11:38;;;;;;;4.45;1.08;;;7.60;83.70;;;;;;4966239;28;20045;-83
2023/10/15 03:14:06;;;;;;;5.15;0.80;;;7.60;83.80;;;;;;4982960;28;20455;-83
2023/10/15 03:16:35;;;;;;;4.70;0.60;;;7.70;83.80;;;;;;4966748;28;20108;-82
2023/10/15 03:19:19;;;;;;;5.15;0.90;;;7.70;84.20;;;;;;4983023;28;20038;-82
2023/10/15 03:21:45;;;;;;;3.10;0.98;;;7.80;83.60;;;;;;4968825;28;20042;-84
2023/10/15 03:24:14;;;;;;;3.05;0.90;;;7.80;83.60;;;;;;4998988;28;20074;-82
2023/10/15 03:26:47;;;;;;;3.28;0.55;;;7.80;83.70;;;;;;4966685;28;20121;-84
2023/10/15 03:29:15;;;;;;;3.95;1.10;;;7.80;83.90;;;;;;4997940;28;20034;-83
2023/10/15 03:31:48;;;;;;;2.67;0.75;;;7.90;84.10;;;;;;4998868;28;20034;-82
2023/10/15 03:34:17;;;;;;;3.45;1.00;;;7.90;84.40;;;;;;4983200;28;20088;-83
2023/10/15 03:36:58;;;;;;;4.63;1.20;;;7.90;84.50;;;;;;4981656;28;20038;-83
2023/10/15 03:39:53;;;;;;;4.70;1.00;;;7.80;84.60;;;;;;4979462;28;20046;-83
2023/10/15 03:44:44;;;;;;;5.50;0.80;;;7.90;84.70;;;;;;4981782;28;20053;-83
2023/10/15 03:47:22;;;;;;;5.35;0.90;;;7.90;84.80;;;;;;4966762;28;20675;-83
2023/10/15 03:49:51;;;;;;;4.50;0.70;;;7.90;84.90;;;;;;4998294;28;20053;-83
2023/10/15 03:52:20;;;;;;;5.10;0.70;;;7.90;85.40;;;;;;4982312;28;20056;-82
2023/10/15 03:54:50;;;;;;;5.90;0.95;;;7.90;85.50;;;;;;4982657;28;20397;-82
2023/10/15 03:57:27;;;;;;;5.13;1.17;;;8.00;85.60;;;;;;5011270;28;20549;-82
2023/10/15 03:59:53;;;;;;;4.15;0.70;;;8.10;85.50;;;;;;5014740;28;20456;-82
2023/10/15 04:02:38;;;;;;;7.28;1.25;;;8.10;85.00;;;;;;4998366;28;20050;-83
2023/10/15 04:05:12;;;;;;;3.60;0.80;;;8.10;84.70;;;;;;4983965;28;20038;-82
2023/10/15 04:07:40;;;;;;;3.45;0.85;;;8.00;84.90;;;;;;4981739;28;20482;-83
2023/10/15 04:10:08;;;;;;;2.33;0.68;;;8.00;84.40;;;;;;4997773;28;20045;-82
2023/10/15 04:12:35;;;;;;;6.18;0.73;;;8.10;84.80;;;;;;4997741;28;20056;-82
2023/10/15 04:15:03;;;;;;;3.63;0.90;;;8.20;84.50;;;;;;4965860;28;20072;-81
2023/10/15 04:17:29;;;;;;;4.75;1.15;;;8.20;84.50;;;;;;4981566;28;20125;-81
2023/10/15 04:19:56;;;;;;;6.70;1.05;;;8.30;84.70;;;;;;4981681;28;20076;-82
2023/10/15 04:22:21;;;;;;;5.75;1.10;;;8.40;85.00;;;;;;4997586;28;20052;-82
2023/10/15 04:24:49;;;;;;;6.70;1.42;;;8.50;84.90;;;;;;4965641;28;20038;-83
2023/10/15 04:27:16;;;;;;;4.28;1.33;;;8.50;84.80;;;;;;4980758;28;20133;-82
2023/10/15 04:29:54;;;;;;;3.22;0.98;;;8.60;84.40;;;;;;4997946;28;20104;-83
2023/10/15 04:32:45;;;;;;;4.68;1.02;;;8.70;83.20;;;;;;4997702;28;20063;-82
2023/10/15 04:35:18;;;;;;;7.47;1.17;;;8.80;83.00;;;;;;4981590;28;20046;-82
2023/10/15 04:37:45;;;;;;;8.02;1.05;;;8.60;83.30;;;;;;4981328;28;20364;-82
2023/10/15 04:40:16;;;;;;;5.30;1.25;;;8.50;83.20;;;;;;4981227;28;20038;-83
2023/10/15 04:42:51;;;;;;;4.97;0.90;;;8.40;83.50;;;;;;4980650;28;20045;-83
2023/10/15 04:45:23;;;;;;;4.57;0.88;;;8.30;84.00;;;;;;4966124;28;20408;-83
2023/10/15 04:47:59;;;;;;;7.95;1.17;;;8.10;84.10;;;;;;4981229;28;20414;-83
2023/10/15 04:50:36;;;;;;;7.25;1.40;;;8.10;84.60;;;;;;4997504;28;20107;-83
2023/10/15 04:53:23;;;;;;;4.70;1.20;;;8.20;84.90;;;;;;4997242;28;20462;-81
2023/10/15 04:55:51;;;;;;;3.78;1.02;;;8.20;84.90;;;;;;4984079;28;20608;-81
2023/10/15 04:58:18;;;;;;;4.07;1.10;;;8.20;85.10;;;;;;4979771;28;20038;-82
2023/10/15 05:00:47;;;;;;;11.98;1.30;;;8.30;84.70;;;;;;4943722;28;20477;-82
2023/10/15 05:03:14;;;;;;;5.10;1.15;;;8.30;84.80;;;;;;4995577;28;20080;-81
2023/10/15 05:05:42;;;;;;;5.18;1.13;;;8.40;84.60;;;;;;4977054;28;20069;-82
2023/10/15 05:08:11;;;;;;;5.45;1.17;;;8.40;84.60;;;;;;4995997;28;20053;-83
2023/10/15 05:10:38;;;;;;;8.52;1.73;;;8.30;84.80;;;;;;5010930;28;20045;-81
2023/10/15 05:13:04;;;;;;;8.52;1.42;;;8.30;84.90;;;;;;4993056;28;20037;-81
2023/10/15 05:15:30;;;;;;;11.43;1.38;;;8.40;85.30;;;;;;4961241;28;20042;-83
2023/10/15 05:17:56;;;;;;;4.43;1.00;;;8.50;85.40;;;;;;4960820;28;20050;-85
2023/10/15 05:20:21;;;;;;;5.57;0.82;;;8.40;84.40;;;;;;4977343;28;20104;-84
2023/10/15 05:22:48;;;;;;;2.33;1.42;;;8.30;83.60;;;;;;4993895;28;20495;-84
2023/10/15 05:25:17;;;;;;;4.10;1.27;;;8.30;83.10;;;;;;5022120;28;20130;-84
2023/10/15 05:27:51;;;;;;;3.42;0.60;;;8.20;82.70;;;;;;5006876;28;20028;-84
2023/10/15 05:30:17;;;;;;;3.15;0.90;;;8.00;83.30;;;;;;5022463;28;20049;-83
2023/10/15 05:32:43;;;;;;;3.97;0.77;;;7.90;83.50;;;;;;4989342;28;20069;-84
2023/10/15 05:35:09;;;;;;;1.38;0.70;;;7.90;84.00;;;;;;5002441;28;20046;-83
2023/10/15 05:37:41;;;;;;;3.20;0.50;;;7.80;84.10;;;;;;4987570;28;20054;-82
2023/10/15 05:40:08;;;;;;;2.72;0.85;;;7.80;84.40;;;;;;4997810;28;20486;-81
2023/10/15 05:42:35;;;;;;;1.85;0.43;;;7.70;84.60;;;;;;4980285;28;20038;-83
2023/10/15 05:45:01;;;;;;;3.92;0.95;;;7.70;84.90;;;;;;4964091;28;20052;-83
2023/10/15 05:47:28;;;;;;;2.42;0.70;;;7.70;84.80;;;;;;4980201;28;20044;-83
2023/10/15 05:49:55;;;;;;;4.25;0.70;;;7.70;84.90;;;;;;4980196;28;20034;-83
2023/10/15 05:52:21;;;;;;;2.33;0.65;;;7.70;85.10;;;;;;4996471;28;20046;-83
2023/10/15 05:54:51;;;;;;;3.28;1.40;;;7.70;85.30;;;;;;4964227;28;20513;-84
2023/10/15 05:57:17;;;;;;;4.75;0.95;;;7.80;84.60;;;;;;4996296;28;20038;-84
2023/10/15 05:59:43;;;;;;;2.58;0.68;;;7.70;84.80;;;;;;4947889;28;20037;-85
2023/10/15 06:02:09;;;;;;;5.07;0.73;;;7.60;84.90;;;;;;4965663;28;20046;-84
2023/10/15 06:04:36;;;;;;;2.40;0.75;;;7.50;84.80;;;;;;4976783;28;20048;-85
2023/10/15 06:07:05;;;;;;;5.82;1.00;;;7.50;84.90;;;;;;4960984;28;20058;-86
2023/10/15 06:09:37;;;;;;;3.45;0.88;;;7.50;85.10;;;;;;4946852;28;20038;-84
2023/10/15 06:12:04;;;;;;;2.88;0.68;;;7.50;85.40;;;;;;4980138;28;20406;-83
2023/10/15 06:14:30;;;;;;;3.90;0.98;;;7.50;85.40;;;;;;4980205;28;20119;-88
2023/10/15 06:16:57;;;;;;;8.35;1.88;;;7.50;85.80;;;;;;4963788;28;20077;-84
2023/10/15 06:19:22;;;;;;;2.53;0.82;;;7.50;85.80;;;;;;4979861;28;20046;-84
2023/10/15 06:21:48;;;;;;;5.47;0.93;;;7.60;86.10;;;;;;4979546;28;20052;-86
2023/10/15 06:24:14;;;;;;;5.57;0.93;;;7.50;86.30;;;;;;4963614;28;20070;-86
2023/10/15 06:26:40;;;;;;;6.88;1.25;;;7.50;87.20;;;;;;4980074;28;20064;-84
2023/10/15 06:29:07;;;;;;;8.60;1.15;;;7.50;87.30;;;;;;4994666;28;20389;-84
2023/10/15 06:31:33;;;;;;;9.25;1.20;;;7.50;87.20;;;;;;4967671;28;20497;-85
2023/10/15 06:33:58;;;;;;;8.35;1.27;;;7.60;87.40;;;;;;5000271;28;20042;-84
2023/10/15 06:36:24;;;;;;;5.57;1.17;;;7.60;87.20;;;;;;4967820;28;20042;-86
2023/10/15 06:38:50;;;;;;;12.23;1.83;;;7.90;86.90;;;;;;4983828;28;20104;-84
2023/10/15 06:41:16;;;;;;;10.43;2.30;;;8.00;86.50;;;;;;4968165;28;20184;-85
2023/10/15 06:43:42;;;;;;;12.45;2.42;;;8.10;86.30;;;;;;4967116;28;20066;-83
2023/10/15 06:46:08;;;;;;;11.50;2.33;;;8.20;86.20;;;;;;4982592;28;20050;-84
2023/10/15 06:48:41;;;;;;;8.65;2.55;;;8.20;86.40;;;;;;4983772;28;20386;-85
2023/10/15 06:51:07;;;;;;;7.25;1.80;;;8.30;86.50;;;;;;5001160;28;20397;-81
2023/10/15 06:53:34;;;;;;;12.25;1.75;;;8.30;86.80;;;;;;4986784;28;20042;-86
2023/10/15 06:56:00;;;;;;;9.77;1.40;;;8.20;86.70;;;;;;4985506;28;20049;-85
2023/10/15 06:58:28;;;;;;;6.28;1.30;;;8.20;86.80;;;;;;4970920;28;20500;-84
2023/10/15 07:00:58;;;;;;;7.00;0.90;;;8.20;86.60;;;;;;4962229;28;20367;-83
2023/10/15 07:03:24;;;;;;;8.13;1.48;;;8.20;86.50;;;;;;4964622;28;20030;-82
2023/10/15 07:05:50;;;;;;;5.75;1.23;;;8.10;86.40;;;;;;4988576;28;20490;-84
2023/10/15 07:08:16;;;;;;;4.68;1.23;;;8.10;86.30;;;;;;4989776;28;20092;-84
2023/10/15 07:10:43;;;;;;;9.43;1.27;;;8.10;86.30;;;;;;4957184;28;20041;-83
2023/10/15 07:13:10;;;;;;;6.72;1.75;;;8.10;86.20;;;;;;4997981;28;20045;-84
2023/10/15 07:15:37;;;;;;;7.65;1.63;;;8.10;86.10;;;;;;4994350;28;20046;-82
2023/10/15 07:18:04;;;;;;;7.20;1.35;;;8.10;86.00;;;;;;4996835;28;20045;-86
2023/10/15 07:20:30;;;;;;;3.53;1.58;;;8.10;86.00;;;;;;4957816;28;20036;-86
2023/10/15 07:22:59;;;;;;;2.90;1.00;;;8.10;85.90;;;;;;4978836;28;20036;-85
2023/10/15 07:25:29;;;;;;;5.07;1.00;;;8.10;85.80;;;;;;4981670;28;20136;-86
2023/10/15 07:27:56;;;;;;;11.27;1.10;;;8.20;85.90;;;;;;4980224;28;20077;-85
2023/10/15 07:30:23;;;;;;;7.85;1.65;;;8.20;85.70;;;;;;4953328;28;20042;-85
2023/10/15 07:32:58;;;;;;;7.60;1.38;;;8.20;85.50;;;;;;4972198;28;20049;-85
2023/10/15 07:35:26;;;;;;;9.95;1.33;;;8.20;85.60;;;;;;4989211;28;20050;-87
2023/10/15 07:37:56;;;;;;;5.13;1.42;;;8.30;85.60;;;;;;4989891;28;20034;-86
2023/10/15 07:40:23;;;;;;;3.95;1.35;;;8.30;85.70;;;;;;4975404;28;20061;-85
2023/10/15 07:42:50;;;;;;;8.73;1.40;;;8.40;85.50;;;;;;4989813;28;20066;-85
2023/10/15 07:45:20;;;;;;;5.07;1.00;;;8.60;85.10;;;;;;4995382;28;20062;-88
2023/10/15 07:47:46;;;;;;;4.82;1.33;;;8.80;84.40;;;;;;4980166;28;20521;-87
2023/10/15 07:50:17;;;;;;;8.82;1.48;;;8.90;83.50;;;;;;4982919;28;20567;-86
2023/10/15 07:52:43;;;;;;;5.88;1.17;;;9.10;82.60;;;;;;4985981;28;20482;-87
2023/10/15 07:55:11;;;;;;;15.65;1.17;;;9.20;79.80;;;;;;4989311;28;20038;-86
2023/10/15 07:57:40;;;;;;;5.30;1.05;;;9.30;79.00;;;;;;4988267;28;20129;-85
2023/10/15 08:00:09;;;;;;;4.78;0.90;;;9.30;79.30;;;;;;4966636;28;20115;-86
2023/10/15 08:02:37;;;;;;;5.05;0.85;;;9.20;79.50;;;;;;4965834;28;20108;-87
2023/10/15 08:05:05;;;;;;;3.40;0.70;;;9.00;79.00;;;;;;4998023;28;20041;-86
2023/10/15 08:07:31;;;;;;;2.85;0.80;;;8.90;79.30;;;;;;4967331;28;20469;-84
2023/10/15 08:09:57;;;;;;;2.90;0.75;;;8.80;79.60;;;;;;4968519;28;20042;-84
2023/10/15 08:12:23;;;;;;;2.80;1.35;;;8.70;79.90;;;;;;4990150;28;20022;-85
2023/10/15 08:14:49;;;;;;;6.78;1.83;;;8.70;79.80;;;;;;5000446;28;20042;-87
2023/10/15 08:17:14;;;;;;;6.22;1.25;;;8.60;80.30;;;;;;4963174;28;20045;-85
2023/10/15 08:19:40;;;;;;;4.35;1.20;;;8.60;80.50;;;;;;4995569;28;20038;-85
2023/10/15 08:22:06;;;;;;;4.25;1.20;;;8.60;80.60;;;;;;4962447;28;20038;-86
2023/10/15 08:24:32;;;;;;;3.75;1.00;;;8.60;81.30;;;;;;4978519;28;20128;-83
2023/10/15 08:26:58;;;;;;;8.23;2.20;;;8.70;81.40;;;;;;4994711;28;20042;-85
2023/10/15 08:29:23;;;;;;;1.92;0.80;;;8.80;81.30;;;;;;4964885;28;20397;-83
2023/10/15 08:31:50;;;;;;;4.70;0.80;;;8.80;81.50;;;;;;4966372;28;20473;-86
2023/10/15 08:34:16;;;;;;;3.78;0.80;;;8.80;81.50;;;;;;4997546;28;20088;-85
2023/10/15 08:36:42;;;;;;;5.20;1.23;;;8.90;81.40;;;;;;4965514;28;20073;-87
2023/10/15 08:39:08;;;;;;;5.63;1.20;;;9.00;81.50;;;;;;4981915;28;20132;-85
2023/10/15 08:41:40;;;;;;;7.50;1.77;;;9.20;81.60;;;;;;4981449;28;20153;-86
2023/10/15 08:44:10;;;;;;;4.90;0.98;;;9.40;81.20;;;;;;4965631;28;20101;-87
2023/10/15 08:46:39;;;;;;;6.57;1.13;;;9.50;80.80;;;;;;4965272;28;20371;-85
2023/10/15 08:49:09;;;;;;;7.85;1.10;;;9.50;80.00;;;;;;4997587;28;20045;-87
2023/10/15 08:51:36;;;;;;;7.57;1.70;;;9.60;79.70;;;;;;4981191;28;20044;-87
2023/10/15 08:54:03;;;;;;;7.68;1.85;;;9.60;80.00;;;;;;4980137;28;20045;-87
2023/10/15 08:56:33;;;;;;;7.78;1.73;;;9.80;80.10;;;;;;4981469;28;20483;-87
2023/10/15 08:59:00;;;;;;;6.82;1.50;;;10.00;80.10;;;;;;4981009;28;20041;-87
2023/10/15 09:01:26;;;;;;;9.95;1.45;;;10.10;79.20;;;;;;4977464;28;20096;-87
2023/10/15 09:03:52;;;;;;;5.50;1.25;;;10.20;78.50;;;;;;4945935;28;20364;-87
2023/10/15 09:06:19;;;;;;;6.35;1.70;;;10.40;77.60;;;;;;4961549;28;20046;-86
2023/10/15 09:08:50;;;;;;;10.57;1.50;;;10.60;76.00;;;;;;4961971;28;20038;-88
2023/10/15 09:11:17;;;;;;;5.57;1.33;;;10.70;73.80;;;;;;4977999;28;20072;-87
2023/10/15 09:13:50;;;;;;;5.57;1.20;;;10.80;73.90;;;;;;4988363;28;20053;-87
2023/10/15 09:16:15;;;;;;;7.65;1.92;;;10.80;74.00;;;;;;4980841;28;20089;-86
2023/10/15 09:18:43;;;;;;;5.38;1.40;;;10.60;72.50;;;;;;4961267;28;20074;-86
2023/10/15 09:21:09;;;;;;;8.23;2.03;;;10.40;72.10;;;;;;4961810;28;20081;-86
2023/10/15 09:23:37;;;;;;;5.82;1.83;;;10.30;73.20;;;;;;4945816;28;20073;-87
2023/10/15 09:26:07;;;;;;;12.05;2.35;;;10.20;73.60;;;;;;4961415;28;20050;-88
2023/10/15 09:28:36;;;;;;;10.80;2.30;;;10.10;73.90;;;;;;4977344;28;20042;-86
2023/10/15 09:31:02;;;;;;;8.68;1.67;;;10.10;74.20;;;;;;4994494;28;20038;-86
2023/10/15 09:33:29;;;;;;;9.38;1.98;;;10.30;74.90;;;;;;4997497;28;20540;-87
2023/10/15 09:35:55;;;;;;;5.70;2.22;;;10.40;75.00;;;;;;4983742;28;20517;-85
2023/10/15 09:38:21;;;;;;;3.97;1.08;;;10.60;75.10;;;;;;4967776;28;20452;-87
2023/10/15 09:40:47;;;;;;;5.05;1.35;;;10.80;75.40;;;;;;5014543;28;20124;-85
2023/10/15 09:43:13;;;;;;;5.47;1.83;;;10.90;74.80;;;;;;4964743;28;20128;-87
2023/10/15 09:45:43;;;;;;;9.00;1.98;;;11.00;73.90;;;;;;4964265;28;20053;-87
2023/10/15 09:48:12;;;;;;;6.45;1.88;;;11.10;73.50;;;;;;4963824;28;20490;-87
2023/10/15 09:50:38;;;;;;;5.95;1.17;;;11.20;73.30;;;;;;4980642;28;20128;-86
2023/10/15 09:53:12;;;;;;;4.97;1.08;;;11.20;72.40;;;;;;4963983;28;20046;-88
2023/10/15 09:55:41;;;;;;;8.05;1.40;;;11.10;73.50;;;;;;4965785;28;20037;-84
2023/10/15 09:58:15;;;;;;;4.32;1.00;;;11.00;73.30;;;;;;4981412;28;20486;-88
2023/10/15 10:01:09;;;;;;;4.68;1.02;;;11.00;73.20;;;;;;4982374;28;20124;-87
2023/10/15 10:03:47;;;;;;;2.60;0.80;;;11.20;72.90;;;;;;4980932;28;20046;-86
2023/10/15 10:06:41;;;;;;;5.70;0.90;;;11.40;72.30;;;;;;4996734;28;20494;-86
2023/10/15 10:09:51;;;;;;;3.97;1.33;;;11.40;70.90;;;;;;4991115;28;20393;-88
2023/10/15 10:12:17;;;;;;;5.72;1.60;;;11.30;73.60;;;;;;4992083;28;20038;-85
2023/10/15 10:15:04;;;;;;;4.00;1.10;;;11.10;74.70;;;;;;4993182;28;20525;-88
2023/10/15 10:17:32;;;;;;;5.90;1.23;;;11.00;76.40;;;;;;5006377;28;20041;-86
2023/10/15 10:20:01;;;;;;;7.93;0.95;;;11.00;77.00;;;;;;4979724;28;20490;-86
2023/10/15 10:22:28;;;;;;;3.63;0.90;;;10.90;77.10;;;;;;4996217;28;20057;-87
2023/10/15 10:25:00;;;;;;;4.20;0.95;;;10.90;77.20;;;;;;4979634;28;20041;-88
2023/10/15 10:27:26;;;;;;;5.03;1.35;;;11.00;77.20;;;;;;4979959;28;20038;-87
2023/10/15 10:30:27;;;;;;;9.65;1.60;;;11.10;77.30;;;;;;4948072;28;20068;-86
2023/10/15 10:32:57;;;;;;;6.68;1.13;;;11.30;77.20;;;;;;4971061;28;20558;-84
2023/10/15 10:35:26;;;;;;;9.25;1.90;;;11.20;76.50;;;;;;5017752;28;20125;-86
2023/10/15 10:38:11;;;;;;;10.40;1.63;;;11.30;76.40;;;;;;4984769;28;20487;-85
2023/10/15 10:40:56;;;;;;;4.45;1.10;;;11.30;76.20;;;;;;4996081;28;20034;-87
2023/10/15 10:43:27;;;;;;;8.65;1.50;;;11.40;74.70;;;;;;4963805;28;20096;-86
2023/10/15 10:46:02;;;;;;;7.60;1.52;;;11.40;75.30;;;;;;4990253;28;20380;-85
2023/10/15 10:48:33;;;;;;;10.25;1.45;;;11.20;73.40;;;;;;4980670;28;20050;-87
2023/10/15 10:51:21;;;;;;;3.95;0.90;;;11.10;73.50;;;;;;4960880;28;20398;-87
2023/10/15 10:53:57;;;;;;;4.22;0.90;;;11.00;74.10;;;;;;5009244;28;20109;-85
2023/10/15 10:56:25;;;;;;;3.08;0.77;;;10.90;74.00;;;;;;4994568;28;20072;-85
2023/10/15 10:58:57;;;;;;;2.97;1.00;;;11.10;74.20;;;;;;4945559;28;20053;-87
2023/10/15 11:01:23;;;;;;;7.20;1.75;;;11.30;73.80;;;;;;4994442;28;20042;-85
2023/10/15 11:03:52;;;;;;;2.25;0.80;;;11.60;72.80;;;;;;5007733;28;20038;-85
2023/10/15 11:06:20;;;;;;;4.47;1.05;;;11.80;71.00;;;;;;4955786;28;20101;-84
2023/10/15 11:08:52;;;;;;;4.68;0.80;;;12.00;69.60;;;;;;4977610;28;20065;-84
2023/10/15 11:11:19;;;;;;;2.90;0.80;;;12.20;69.10;;;;;;4963761;28;20092;-85
2023/10/15 11:13:47;;;;;;;5.10;1.10;;;12.40;67.10;;;;;;4962442;28;20050;-85
2023/10/15 11:16:15;;;;;;;8.82;0.95;;;12.60;67.30;;;;;;4995074;28;20525;-84
2023/10/15 11:18:41;;;;;;;7.10;1.77;;;12.80;66.50;;;;;;4965653;28;20491;-86
2023/10/15 11:21:08;;;;;;;9.40;0.90;;;13.00;66.60;;;;;;4979925;28;20041;-85
2023/10/15 11:23:34;;;;;;;7.97;1.67;;;13.10;65.90;;;;;;4963874;28;20038;-86
2023/10/15 11:26:00;;;;;;;4.38;1.05;;;13.40;65.70;;;;;;4980582;28;20038;-87
2023/10/15 11:28:26;;;;;;;4.70;1.17;;;13.50;64.80;;;;;;4948720;28;20545;-87
2023/10/15 11:30:53;;;;;;;6.72;1.02;;;13.70;64.10;;;;;;4932965;28;20419;-85
2023/10/15 11:33:19;;;;;;;5.20;2.08;;;13.70;63.70;;;;;;4981474;28;20485;-85
2023/10/15 11:35:48;;;;;;;4.38;1.15;;;13.70;62.90;;;;;;5013162;28;20038;-85
2023/10/15 11:38:14;;;;;;;5.10;0.98;;;13.60;62.60;;;;;;5014682;28;20043;-88
2023/10/15 11:40:40;;;;;;;8.50;1.52;;;13.70;63.70;;;;;;5019854;28;20038;-86
2023/10/15 11:43:18;;;;;;;5.40;1.20;;;13.70;61.50;;;;;;4981204;28;20061;-89
2023/10/15 11:45:45;;;;;;;6.15;1.30;;;13.90;63.40;;;;;;4968370;28;20054;-86
2023/10/15 11:48:12;;;;;;;8.35;1.50;;;13.70;63.80;;;;;;4981482;28;20058;-88
2023/10/15 11:50:40;;;;;;;6.30;1.70;;;13.50;65.30;;;;;;4948789;28;20137;-87
2023/10/15 11:53:16;;;;;;;5.85;1.40;;;13.40;64.70;;;;;;4996988;28;20057;-87
2023/10/15 11:55:52;;;;;;;8.23;1.50;;;13.30;64.50;;;;;;4980636;28;20221;-87
2023/10/15 11:58:19;;;;;;;3.63;1.08;;;13.50;65.20;;;;;;4979946;28;20414;-87
2023/10/15 12:00:48;;;;;;;4.50;1.00;;;13.70;62.80;;;;;;4947815;28;20518;-87
2023/10/15 12:03:16;;;;;;;4.47;1.33;;;14.00;61.80;;;;;;4996154;28;20041;-87
2023/10/15 12:05:42;;;;;;;3.97;1.15;;;14.00;60.60;;;;;;4980174;28;20085;-88
2023/10/15 12:08:12;;;;;;;4.95;0.90;;;14.10;60.00;;;;;;4980065;28;20038;-87
2023/10/15 12:10:42;;;;;;;4.45;1.20;;;14.30;59.90;;;;;;4964526;28;20474;-87
2023/10/15 12:13:14;;;;;;;4.68;1.20;;;14.30;57.70;;;;;;4980426;28;20045;-86
2023/10/15 12:15:41;;;;;;;7.43;1.48;;;14.30;56.60;;;;;;4979905;28;20046;-86
2023/10/15 12:18:07;;;;;;;7.65;1.50;;;14.30;56.60;;;;;;4982738;28;20043;-87
2023/10/15 12:20:33;;;;;;;5.25;1.27;;;14.30;56.10;;;;;;4948305;28;20454;-86
2023/10/15 12:22:59;;;;;;;8.48;1.48;;;14.30;55.30;;;;;;4964073;28;20391;-85
2023/10/15 12:25:25;;;;;;;3.35;1.13;;;14.40;57.20;;;;;;4932023;28;20038;-86
2023/10/15 12:27:51;;;;;;;7.15;1.25;;;14.10;58.40;;;;;;4963072;28;20107;-88
2023/10/15 12:30:23;;;;;;;4.55;0.90;;;13.80;59.10;;;;;;4963262;28;20053;-86
2023/10/15 12:32:55;;;;;;;4.47;1.17;;;13.40;60.50;;;;;;4979825;28;20077;-87
2023/10/15 12:35:33;;;;;;;3.05;0.77;;;13.20;61.80;;;;;;4986731;28;20046;-85
2023/10/15 12:38:12;;;;;;;8.95;1.42;;;13.30;59.90;;;;;;4996494;28;20046;-86
2023/10/15 12:40:38;;;;;;;3.03;0.98;;;13.40;63.40;;;;;;4978917;28;20034;-85
2023/10/15 12:43:15;;;;;;;1.30;0.70;;;13.30;58.30;;;;;;4995222;28;20034;-86
2023/10/15 12:45:46;;;;;;;2.05;0.60;;;13.40;60.00;;;;;;5006864;28;20053;-87
2023/10/15 12:48:13;;;;;;;4.47;1.20;;;13.40;59.90;;;;;;4999232;28;20063;-88
2023/10/15 12:50:38;;;;;;;2.28;0.50;;;13.60;59.20;;;;;;4967034;28;20045;-86
2023/10/15 12:53:04;;;;;;;4.10;0.73;;;13.90;60.60;;;;;;4966377;28;20133;-85
2023/10/15 12:55:30;;;;;;;3.42;0.80;;;14.10;60.20;;;;;;4998374;28;20489;-88
2023/10/15 12:57:57;;;;;;;4.57;0.88;;;14.30;60.20;;;;;;4982007;28;20038;-87
2023/10/15 13:00:26;;;;;;;4.57;1.10;;;14.40;60.80;;;;;;4982662;28;20042;-87
2023/10/15 13:02:53;;;;;;;4.80;1.25;;;14.10;60.60;;;;;;4982722;28;20530;-88
2023/10/15 13:05:24;;;;;;;3.33;0.90;;;13.70;62.30;;;;;;4966462;28;20529;-88
2023/10/15 13:07:53;;;;;;;4.25;1.70;;;13.10;64.80;;;;;;4966784;28;20467;-87
2023/10/15 13:10:20;;;;;;;6.47;1.48;;;12.70;66.60;;;;;;4982314;28;20042;-88
2023/10/15 13:12:51;;;;;;;5.93;1.70;;;12.30;69.40;;;;;;4983341;28;20067;-88
2023/10/15 13:15:18;;;;;;;4.40;1.10;;;12.30;71.00;;;;;;4966387;28;20095;-88
2023/10/15 13:17:44;;;;;;;7.28;1.50;;;12.30;70.90;;;;;;4981786;28;20041;-88